Time;durP1;ratioP1;P1;durP2;ratioP2;P2;SDS_P1;SDS_P2;PMS_P1;PMS_P2;Temp;Humidity;BMP_temperature;BMP_pressure;BME280_temperature;BME280_humidity;BME280_pressure;Samples;Min_cycle;Max_cycle;Signal;HPM_P1;HPM_P2
2022/08/19 00:35:27;;;;;;;0.10;0.10;;;;;;;;;;6356414;22;20041;-90
2022/08/19 00:37:53;;;;;;;0.10;0.10;;;;;;;;;;6292888;22;20023;-91
2022/08/19 00:40:19;;;;;;;0.10;0.10;;;;;;;;;;6292940;22;19998;-90
2022/08/19 00:42:46;;;;;;;0.10;0.10;;;;;;;;;;6291504;22;20013;-90
2022/08/19 00:45:16;;;;;;;0.10;0.10;;;;;;;;;;6292606;22;20021;-90
2022/08/19 00:47:43;;;;;;;0.00;0.00;;;;;;;;;;6291859;22;20045;-91
2022/08/19 00:50:10;;;;;;;0.10;0.10;;;;;;;;;;6291428;22;20094;-91
2022/08/19 00:52:39;;;;;;;0.10;0.10;;;;;;;;;;6292586;22;20019;-91
2022/08/19 00:55:10;;;;;;;0.10;0.10;;;;;;;;;;6292727;22;20778;-91
2022/08/19 00:57:38;;;;;;;0.05;0.05;;;;;;;;;;6291951;22;20015;-91
2022/08/19 01:00:07;;;;;;;0.10;0.10;;;;;;;;;;6292958;22;20057;-90
2022/08/19 01:02:33;;;;;;;0.10;0.10;;;;;;;;;;6292885;22;20057;-91
2022/08/19 01:05:00;;;;;;;0.10;0.10;;;;;;;;;;6293086;22;20057;-90
2022/08/19 01:07:27;;;;;;;0.10;0.10;;;;;;;;;;6292334;22;20099;-91
2022/08/19 01:09:53;;;;;;;0.10;0.10;;;;;;;;;;6293028;22;20026;-91
2022/08/19 01:12:20;;;;;;;0.10;0.10;;;;;;;;;;6292613;22;20064;-91
2022/08/19 01:18:10;;;;;;;0.00;0.00;;;;;;;;;;6356429;22;20021;-90
2022/08/19 01:20:36;;;;;;;0.03;0.03;;;;;;;;;;6292848;22;20019;-90
2022/08/19 01:23:03;;;;;;;0.00;0.00;;;;;;;;;;6292616;22;20026;-90
2022/08/19 01:25:35;;;;;;;0.10;0.10;;;;;;;;;;6292408;22;20023;-90
2022/08/19 01:28:01;;;;;;;0.20;0.20;;;;;;;;;;6292708;22;20023;-90
2022/08/19 01:30:30;;;;;;;0.10;0.10;;;;;;;;;;6292797;22;20022;-91
2022/08/19 01:32:56;;;;;;;0.10;0.10;;;;;;;;;;6292844;22;20046;-91
2022/08/19 01:35:23;;;;;;;0.10;0.10;;;;;;;;;;6292757;22;20015;-90
2022/08/19 01:37:54;;;;;;;0.05;0.05;;;;;;;;;;6318133;22;20003;-89
2022/08/19 01:40:21;;;;;;;0.00;0.00;;;;;;;;;;6292403;22;20019;-91
2022/08/19 01:42:51;;;;;;;0.10;0.10;;;;;;;;;;6292189;22;20432;-90
2022/08/19 01:45:18;;;;;;;0.10;0.10;;;;;;;;;;6291622;22;20026;-90
2022/08/19 01:47:44;;;;;;;0.10;0.10;;;;;;;;;;6290806;22;20025;-90
2022/08/19 01:50:11;;;;;;;0.10;0.10;;;;;;;;;;6291813;22;20097;-91
2022/08/19 01:52:38;;;;;;;0.10;0.10;;;;;;;;;;6289775;22;20022;-90
2022/08/19 01:55:13;;;;;;;0.03;0.03;;;;;;;;;;6292096;22;20040;-90
2022/08/19 01:57:39;;;;;;;0.10;0.10;;;;;;;;;;6266599;22;20021;-90
2022/08/19 02:00:07;;;;;;;0.10;0.10;;;;;;;;;;6292130;22;20019;-90
2022/08/19 02:02:33;;;;;;;0.00;0.00;;;;;;;;;;6292010;22;20018;-91
2022/08/19 02:05:00;;;;;;;0.10;0.10;;;;;;;;;;6292150;22;20025;-90
2022/08/19 02:07:28;;;;;;;0.10;0.10;;;;;;;;;;6291123;22;20047;-90
2022/08/19 02:09:55;;;;;;;0.20;0.20;;;;;;;;;;6292449;22;20445;-90
2022/08/19 02:12:21;;;;;;;0.00;0.00;;;;;;;;;;6292131;22;20050;-90
2022/08/19 02:14:47;;;;;;;0.10;0.10;;;;;;;;;;6292049;22;20022;-90
2022/08/19 02:17:13;;;;;;;0.20;0.20;;;;;;;;;;6291578;22;20063;-90
2022/08/19 02:19:40;;;;;;;0.10;0.10;;;;;;;;;;6291588;22;20018;-90
2022/08/19 02:22:06;;;;;;;0.10;0.10;;;;;;;;;;6291606;22;20019;-89
2022/08/19 02:24:32;;;;;;;0.10;0.10;;;;;;;;;;6291229;22;20022;-89
2022/08/19 02:26:58;;;;;;;0.00;0.00;;;;;;;;;;6290782;22;20019;-89
2022/08/19 02:29:24;;;;;;;0.10;0.10;;;;;;;;;;6290719;22;20050;-89
2022/08/19 02:31:51;;;;;;;0.10;0.10;;;;;;;;;;6291051;22;20097;-90
2022/08/19 02:34:17;;;;;;;0.10;0.10;;;;;;;;;;6316003;22;20017;-90
2022/08/19 02:36:43;;;;;;;0.10;0.10;;;;;;;;;;6289614;22;20020;-90
2022/08/19 02:39:09;;;;;;;0.10;0.10;;;;;;;;;;6291861;22;20046;-90
2022/08/19 02:41:35;;;;;;;0.10;0.10;;;;;;;;;;6292036;22;20014;-90
2022/08/19 02:44:03;;;;;;;0.20;0.20;;;;;;;;;;6291887;22;20010;-90
2022/08/19 02:46:30;;;;;;;0.10;0.10;;;;;;;;;;6291538;22;20026;-90
2022/08/19 02:48:57;;;;;;;0.08;0.08;;;;;;;;;;6291810;22;20026;-90
2022/08/19 02:51:31;;;;;;;0.10;0.10;;;;;;;;;;6292075;22;20084;-91
2022/08/19 02:53:59;;;;;;;0.10;0.10;;;;;;;;;;6292115;22;20030;-91
2022/08/19 02:56:27;;;;;;;0.10;0.10;;;;;;;;;;6291002;22;20019;-90
2022/08/19 02:58:53;;;;;;;0.00;0.00;;;;;;;;;;6292384;22;20022;-90
2022/08/19 03:01:20;;;;;;;0.10;0.10;;;;;;;;;;6291924;22;20094;-90
2022/08/19 03:03:46;;;;;;;0.10;0.10;;;;;;;;;;6291399;22;20014;-90
2022/08/19 03:06:14;;;;;;;0.10;0.10;;;;;;;;;;6290825;22;20046;-90
2022/08/19 03:08:41;;;;;;;0.17;0.17;;;;;;;;;;6292125;22;20014;-90
2022/08/19 03:11:22;;;;;;;0.10;0.10;;;;;;;;;;6290647;22;20013;-90
2022/08/19 03:13:51;;;;;;;0.10;0.10;;;;;;;;;;6291399;22;20026;-89
2022/08/19 03:16:27;;;;;;;0.10;0.10;;;;;;;;;;6289928;22;20002;-90
2022/08/19 03:18:54;;;;;;;0.17;0.17;;;;;;;;;;6290530;22;20054;-90
2022/08/19 03:21:21;;;;;;;0.10;0.10;;;;;;;;;;6291369;22;20019;-89
2022/08/19 03:23:48;;;;;;;0.00;0.00;;;;;;;;;;6291241;22;20085;-89
2022/08/19 03:26:14;;;;;;;0.20;0.20;;;;;;;;;;6288506;22;20029;-89
2022/08/19 03:28:41;;;;;;;0.08;0.08;;;;;;;;;;6291612;22;20321;-90
2022/08/19 03:31:12;;;;;;;0.20;0.20;;;;;;;;;;6291562;22;20019;-89
2022/08/19 03:33:38;;;;;;;0.10;0.10;;;;;;;;;;6291472;22;20075;-90
2022/08/19 03:36:09;;;;;;;0.13;0.13;;;;;;;;;;6290525;22;20042;-90
2022/08/19 03:38:37;;;;;;;0.10;0.10;;;;;;;;;;6290804;22;20026;-90
2022/08/19 03:41:08;;;;;;;0.10;0.10;;;;;;;;;;6291606;22;20052;-89
2022/08/19 03:43:35;;;;;;;0.10;0.10;;;;;;;;;;6291244;22;20512;-90
2022/08/19 03:46:03;;;;;;;0.10;0.10;;;;;;;;;;6291539;22;20094;-90
2022/08/19 03:48:30;;;;;;;0.10;0.10;;;;;;;;;;6291735;22;20019;-89
2022/08/19 03:50:58;;;;;;;0.10;0.10;;;;;;;;;;6291853;22;20018;-90
2022/08/19 03:53:25;;;;;;;0.10;0.10;;;;;;;;;;6291048;22;20027;-89
2022/08/19 03:55:52;;;;;;;0.10;0.10;;;;;;;;;;6290794;22;20015;-89
2022/08/19 03:58:18;;;;;;;0.20;0.20;;;;;;;;;;6291017;22;20018;-90
2022/08/19 04:00:44;;;;;;;0.05;0.05;;;;;;;;;;6290640;22;20051;-88
2022/08/19 04:03:10;;;;;;;0.08;0.08;;;;;;;;;;6287796;22;19999;-89
2022/08/19 04:05:37;;;;;;;0.00;0.00;;;;;;;;;;6288935;22;19999;-89
2022/08/19 04:08:03;;;;;;;0.10;0.10;;;;;;;;;;6290456;22;20015;-89
2022/08/19 04:10:29;;;;;;;0.10;0.10;;;;;;;;;;6288182;22;20014;-89
2022/08/19 04:12:55;;;;;;;0.10;0.10;;;;;;;;;;6289764;22;20043;-89
2022/08/19 04:15:21;;;;;;;0.20;0.20;;;;;;;;;;6289935;22;20023;-89
2022/08/19 04:17:47;;;;;;;0.13;0.13;;;;;;;;;;6289950;22;20200;-91
2022/08/19 04:20:13;;;;;;;0.10;0.10;;;;;;;;;;6290432;22;20018;-90
2022/08/19 04:22:40;;;;;;;0.10;0.10;;;;;;;;;;6290563;22;20054;-89
2022/08/19 04:25:06;;;;;;;0.10;0.10;;;;;;;;;;6289629;22;20015;-88
2022/08/19 04:27:33;;;;;;;0.10;0.10;;;;;;;;;;6288885;22;20064;-89
2022/08/19 04:29:59;;;;;;;0.10;0.10;;;;;;;;;;6290153;22;20015;-89
2022/08/19 04:32:25;;;;;;;0.20;0.20;;;;;;;;;;6315699;22;20473;-89
2022/08/19 04:34:51;;;;;;;0.10;0.10;;;;;;;;;;6290095;22;20078;-89
2022/08/19 04:37:17;;;;;;;0.20;0.20;;;;;;;;;;6289600;22;20054;-90
2022/08/19 04:42:39;;;;;;;0.10;0.10;;;;;;;;;;6315791;22;20023;-89
2022/08/19 04:45:06;;;;;;;0.20;0.20;;;;;;;;;;6290299;22;20119;-89
2022/08/19 04:47:33;;;;;;;0.10;0.10;;;;;;;;;;6290143;22;20025;-90
2022/08/19 04:50:12;;;;;;;0.10;0.10;;;;;;;;;;6289190;22;20006;-88
2022/08/19 04:52:42;;;;;;;0.10;0.10;;;;;;;;;;6289078;22;20050;-89
2022/08/19 04:55:09;;;;;;;0.10;0.10;;;;;;;;;;6289093;22;20057;-89
2022/08/19 04:57:40;;;;;;;0.00;0.00;;;;;;;;;;6289565;22;20066;-89
2022/08/19 05:00:07;;;;;;;0.08;0.08;;;;;;;;;;6290256;22;20022;-89
2022/08/19 05:02:33;;;;;;;0.10;0.10;;;;;;;;;;6287941;22;20015;-89
2022/08/19 05:05:02;;;;;;;0.25;0.25;;;;;;;;;;6288507;22;20018;-89
2022/08/19 05:07:29;;;;;;;0.20;0.20;;;;;;;;;;6289303;22;20022;-89
2022/08/19 05:09:55;;;;;;;0.10;0.10;;;;;;;;;;6289749;22;20026;-89
2022/08/19 05:12:21;;;;;;;0.00;0.00;;;;;;;;;;6289563;22;20044;-89
2022/08/19 05:14:47;;;;;;;0.10;0.10;;;;;;;;;;6289226;22;20053;-89
2022/08/19 05:17:16;;;;;;;0.10;0.10;;;;;;;;;;6289050;22;20038;-89
2022/08/19 05:22:35;;;;;;;0.03;0.03;;;;;;;;;;6317121;22;20045;-88
2022/08/19 05:25:06;;;;;;;0.10;0.10;;;;;;;;;;6291098;22;20265;-88
2022/08/19 05:27:32;;;;;;;0.10;0.10;;;;;;;;;;6290627;22;20030;-88
2022/08/19 05:29:58;;;;;;;0.10;0.10;;;;;;;;;;6291352;22;20361;-88
2022/08/19 05:32:25;;;;;;;0.08;0.08;;;;;;;;;;6291214;22;20029;-88
2022/08/19 05:34:51;;;;;;;0.10;0.10;;;;;;;;;;6291032;22;20356;-88
2022/08/19 05:37:17;;;;;;;0.05;0.05;;;;;;;;;;6290868;22;20018;-89
2022/08/19 05:39:44;;;;;;;0.10;0.10;;;;;;;;;;6316559;22;20083;-88
2022/08/19 05:42:11;;;;;;;0.10;0.10;;;;;;;;;;6291092;22;20025;-88
2022/08/19 05:44:39;;;;;;;0.08;0.08;;;;;;;;;;6290518;22;20018;-87
2022/08/19 05:47:06;;;;;;;0.08;0.08;;;;;;;;;;6289570;22;20014;-89
2022/08/19 05:49:33;;;;;;;0.10;0.10;;;;;;;;;;6290619;22;20014;-89
2022/08/19 05:52:01;;;;;;;0.10;0.10;;;;;;;;;;6289680;22;20068;-89
2022/08/19 05:54:27;;;;;;;0.10;0.10;;;;;;;;;;6315164;22;20057;-89
2022/08/19 05:56:54;;;;;;;0.10;0.10;;;;;;;;;;6290971;22;20032;-88
2022/08/19 05:59:21;;;;;;;0.10;0.10;;;;;;;;;;6290596;22;20023;-89
2022/08/19 06:01:50;;;;;;;0.10;0.10;;;;;;;;;;6291169;22;20022;-89
2022/08/19 06:04:18;;;;;;;0.10;0.10;;;;;;;;;;6291070;22;20017;-89
2022/08/19 06:06:56;;;;;;;0.00;0.00;;;;;;;;;;6290722;22;20019;-89
2022/08/19 06:09:23;;;;;;;0.20;0.20;;;;;;;;;;6289974;22;20034;-88
2022/08/19 06:11:59;;;;;;;0.15;0.15;;;;;;;;;;6289890;22;20025;-87
2022/08/19 06:14:29;;;;;;;0.00;0.00;;;;;;;;;;6315158;22;20330;-87
2022/08/19 06:16:55;;;;;;;0.10;0.10;;;;;;;;;;6289462;22;20019;-88
2022/08/19 06:19:23;;;;;;;0.10;0.10;;;;;;;;;;6289397;22;20067;-88
2022/08/19 06:21:50;;;;;;;0.10;0.10;;;;;;;;;;6289284;22;20047;-87
2022/08/19 06:24:18;;;;;;;0.05;0.05;;;;;;;;;;6289361;22;20089;-87
2022/08/19 06:26:46;;;;;;;0.10;0.10;;;;;;;;;;6288965;22;20353;-87
2022/08/19 06:29:12;;;;;;;0.10;0.10;;;;;;;;;;6289405;22;20019;-87
2022/08/19 06:31:41;;;;;;;0.00;0.00;;;;;;;;;;6289572;22;20021;-88
2022/08/19 06:34:07;;;;;;;0.10;0.10;;;;;;;;;;6290243;22;20053;-87
2022/08/19 06:36:35;;;;;;;0.00;0.00;;;;;;;;;;6288289;22;19995;-87
2022/08/19 06:39:02;;;;;;;0.15;0.15;;;;;;;;;;6289023;22;20064;-87
2022/08/19 06:41:29;;;;;;;0.00;0.00;;;;;;;;;;6288862;22;20010;-87
2022/08/19 06:43:55;;;;;;;0.10;0.10;;;;;;;;;;6312886;22;20022;-87
2022/08/19 06:46:22;;;;;;;0.10;0.10;;;;;;;;;;6288327;22;20038;-87
2022/08/19 06:48:48;;;;;;;0.10;0.10;;;;;;;;;;6289358;22;20019;-87
2022/08/19 06:51:16;;;;;;;0.05;0.05;;;;;;;;;;6288730;22;20462;-87
2022/08/19 06:53:46;;;;;;;0.05;0.05;;;;;;;;;;6288646;22;20018;-88
2022/08/19 06:56:14;;;;;;;0.10;0.10;;;;;;;;;;6289145;22;20015;-87
2022/08/19 06:58:40;;;;;;;0.10;0.10;;;;;;;;;;6288739;22;20046;-87
2022/08/19 07:01:06;;;;;;;0.08;0.08;;;;;;;;;;6288674;22;20068;-87
2022/08/19 07:03:34;;;;;;;0.10;0.10;;;;;;;;;;6289288;22;20068;-90
2022/08/19 07:06:05;;;;;;;0.00;0.00;;;;;;;;;;6288882;22;20026;-89
2022/08/19 07:08:31;;;;;;;0.10;0.10;;;;;;;;;;6289725;22;20084;-89
2022/08/19 07:11:15;;;;;;;0.10;0.10;;;;;;;;;;6288209;22;20027;-89
2022/08/19 07:14:06;;;;;;;0.05;0.05;;;;;;;;;;6290011;22;20025;-90
2022/08/19 07:16:32;;;;;;;0.05;0.05;;;;;;;;;;6314621;22;20394;-90
2022/08/19 07:19:00;;;;;;;0.13;0.13;;;;;;;;;;6289685;22;20061;-90
2022/08/19 07:21:27;;;;;;;0.10;0.10;;;;;;;;;;6289550;22;20019;-90
2022/08/19 07:24:03;;;;;;;0.10;0.10;;;;;;;;;;6289196;22;20011;-90
2022/08/19 07:26:31;;;;;;;0.10;0.10;;;;;;;;;;6288616;22;20093;-91
2022/08/19 07:29:01;;;;;;;0.00;0.00;;;;;;;;;;6287020;22;20019;-90
2022/08/19 07:31:28;;;;;;;0.10;0.10;;;;;;;;;;6287837;22;20119;-90
2022/08/19 07:33:56;;;;;;;0.10;0.10;;;;;;;;;;6288739;22;20920;-90
2022/08/19 07:36:31;;;;;;;0.00;0.00;;;;;;;;;;6287917;22;20059;-91
2022/08/19 07:38:58;;;;;;;0.00;0.00;;;;;;;;;;6289058;22;20025;-91
2022/08/19 07:41:26;;;;;;;0.10;0.10;;;;;;;;;;6287979;22;20102;-91
2022/08/19 07:43:53;;;;;;;0.15;0.15;;;;;;;;;;6286547;22;20011;-91
2022/08/19 07:46:26;;;;;;;0.10;0.10;;;;;;;;;;6287909;22;20019;-92
2022/08/19 07:48:52;;;;;;;0.00;0.00;;;;;;;;;;6289490;22;20021;-91
2022/08/19 07:51:20;;;;;;;0.03;0.03;;;;;;;;;;6288918;22;20067;-91
2022/08/19 07:53:47;;;;;;;0.10;0.10;;;;;;;;;;6288865;22;20090;-91
2022/08/19 07:56:13;;;;;;;0.03;0.03;;;;;;;;;;6288650;22;20104;-91
2022/08/19 07:58:41;;;;;;;0.10;0.10;;;;;;;;;;6289105;22;20023;-93
2022/08/19 08:01:09;;;;;;;0.00;0.00;;;;;;;;;;6290247;22;20022;-94
2022/08/19 08:09:15;;;;;;;0.10;0.10;;;;;;;;;;6316010;22;20030;-94
2022/08/19 08:11:53;;;;;;;0.05;0.05;;;;;;;;;;6289926;22;20025;-93
2022/08/19 08:14:22;;;;;;;0.00;0.00;;;;;;;;;;6289974;22;20015;-95
2022/08/19 08:16:59;;;;;;;0.10;0.10;;;;;;;;;;6288414;22;20444;-94
2022/08/19 08:19:29;;;;;;;0.08;0.08;;;;;;;;;;6316216;22;20042;-94
2022/08/19 08:21:56;;;;;;;0.10;0.10;;;;;;;;;;6289403;22;20471;-94
2022/08/19 08:24:22;;;;;;;0.00;0.00;;;;;;;;;;6315175;22;20076;-93
2022/08/19 08:26:48;;;;;;;0.08;0.08;;;;;;;;;;6288762;22;20648;-93
2022/08/19 08:29:15;;;;;;;0.10;0.10;;;;;;;;;;6289391;22;20026;-93
2022/08/19 08:31:42;;;;;;;0.00;0.00;;;;;;;;;;6289978;22;20019;-92
2022/08/19 08:34:08;;;;;;;0.13;0.13;;;;;;;;;;6289602;22;20023;-91
2022/08/19 08:36:41;;;;;;;0.00;0.00;;;;;;;;;;6288081;22;20090;-92
2022/08/19 08:39:10;;;;;;;0.00;0.00;;;;;;;;;;6288924;22;20440;-89
2022/08/19 08:41:43;;;;;;;0.00;0.00;;;;;;;;;;6289518;22;20022;-91
2022/08/19 08:44:15;;;;;;;0.10;0.10;;;;;;;;;;6289748;22;20023;-90
2022/08/19 08:46:47;;;;;;;0.10;0.10;;;;;;;;;;6314233;22;20027;-91
2022/08/19 08:49:26;;;;;;;0.10;0.10;;;;;;;;;;6289901;22;20026;-91
2022/08/19 08:51:55;;;;;;;0.00;0.00;;;;;;;;;;6289826;22;20007;-91
2022/08/19 08:54:25;;;;;;;0.00;0.00;;;;;;;;;;6289839;22;20066;-93
2022/08/19 08:56:56;;;;;;;0.17;0.17;;;;;;;;;;6291318;22;20019;-91
2022/08/19 08:59:33;;;;;;;0.10;0.10;;;;;;;;;;6290336;22;20015;-89
2022/08/19 09:01:59;;;;;;;0.10;0.10;;;;;;;;;;6290357;22;20073;-89
2022/08/19 09:04:25;;;;;;;0.10;0.10;;;;;;;;;;6291192;22;20026;-91
2022/08/19 09:07:18;;;;;;;0.00;0.00;;;;;;;;;;6291221;22;20015;-91
2022/08/19 09:09:47;;;;;;;0.00;0.00;;;;;;;;;;6269912;22;20023;-90
2022/08/19 09:12:17;;;;;;;0.00;0.00;;;;;;;;;;6290254;22;20070;-91
2022/08/19 09:14:46;;;;;;;0.10;0.10;;;;;;;;;;6291034;22;20010;-93
2022/08/19 09:17:12;;;;;;;0.10;0.10;;;;;;;;;;6290957;22;20058;-91
2022/08/19 09:19:52;;;;;;;0.10;0.10;;;;;;;;;;6290746;22;20030;-92
2022/08/19 09:22:21;;;;;;;0.00;0.00;;;;;;;;;;6290707;22;20103;-93
2022/08/19 09:24:48;;;;;;;0.15;0.15;;;;;;;;;;6290540;22;20015;-92
2022/08/19 09:27:23;;;;;;;0.08;0.08;;;;;;;;;;6290324;22;20102;-93
2022/08/19 09:29:50;;;;;;;0.00;0.00;;;;;;;;;;6290742;22;20080;-91
2022/08/19 09:32:17;;;;;;;0.00;0.00;;;;;;;;;;6290638;22;20018;-94
2022/08/19 09:34:45;;;;;;;0.08;0.08;;;;;;;;;;6290703;22;20018;-93
2022/08/19 09:37:11;;;;;;;0.00;0.00;;;;;;;;;;6289933;22;20448;-90
2022/08/19 09:39:41;;;;;;;0.10;0.10;;;;;;;;;;6289867;22;20014;-93
2022/08/19 09:42:11;;;;;;;0.00;0.00;;;;;;;;;;6266141;22;20441;-92
2022/08/19 09:44:56;;;;;;;0.10;0.10;;;;;;;;;;6291974;22;20003;-93
2022/08/19 09:47:24;;;;;;;0.00;0.00;;;;;;;;;;6292198;22;20053;-92
2022/08/19 09:49:54;;;;;;;0.10;0.10;;;;;;;;;;6291929;22;20007;-94
2022/08/19 09:52:26;;;;;;;0.00;0.00;;;;;;;;;;6291942;22;20017;-95
2022/08/19 09:55:11;;;;;;;0.00;0.00;;;;;;;;;;6294714;22;20007;-94
2022/08/19 09:57:40;;;;;;;0.10;0.10;;;;;;;;;;6292235;22;20015;-93
2022/08/19 10:00:09;;;;;;;0.10;0.10;;;;;;;;;;6290890;22;20041;-93
2022/08/19 10:02:35;;;;;;;0.10;0.10;;;;;;;;;;6291931;22;20101;-93
2022/08/19 10:08:01;;;;;;;0.00;0.00;;;;;;;;;;6316860;22;20027;-93
2022/08/19 10:10:35;;;;;;;0.00;0.00;;;;;;;;;;6292287;22;20030;-95
2022/08/19 10:13:01;;;;;;;0.00;0.00;;;;;;;;;;6291539;22;20014;-91
2022/08/19 10:15:46;;;;;;;0.00;0.00;;;;;;;;;;6289648;22;20034;-91
2022/08/19 10:18:17;;;;;;;0.00;0.00;;;;;;;;;;6289504;22;20025;-92
2022/08/19 10:20:45;;;;;;;0.00;0.00;;;;;;;;;;6289075;22;20015;-92
2022/08/19 10:23:30;;;;;;;0.03;0.03;;;;;;;;;;6290473;22;20019;-91
2022/08/19 10:25:59;;;;;;;0.05;0.05;;;;;;;;;;6289497;22;20022;-89
2022/08/19 10:28:25;;;;;;;0.05;0.05;;;;;;;;;;6289041;22;20019;-90
2022/08/19 10:30:52;;;;;;;0.10;0.10;;;;;;;;;;6316728;22;20050;-93
2022/08/19 10:33:19;;;;;;;0.10;0.10;;;;;;;;;;6289930;22;20084;-94
2022/08/19 10:35:46;;;;;;;0.08;0.08;;;;;;;;;;6288712;22;20067;-89
2022/08/19 10:38:12;;;;;;;0.00;0.00;;;;;;;;;;6287824;22;20026;-90
2022/08/19 10:40:38;;;;;;;0.00;0.00;;;;;;;;;;6290330;22;20601;-91
2022/08/19 10:43:26;;;;;;;0.00;0.00;;;;;;;;;;6290494;22;20025;-92
2022/08/19 10:45:55;;;;;;;0.00;0.00;;;;;;;;;;6314565;22;20042;-92
2022/08/19 10:48:21;;;;;;;0.00;0.00;;;;;;;;;;6315689;22;20041;-92
2022/08/19 10:53:32;;;;;;;0.00;0.00;;;;;;;;;;6315720;22;20039;-92
2022/08/19 10:58:46;;;;;;;0.00;0.00;;;;;;;;;;6315425;22;20094;-92
2022/08/19 11:01:24;;;;;;;0.10;0.10;;;;;;;;;;6289341;22;20018;-93
2022/08/19 11:04:02;;;;;;;0.10;0.10;;;;;;;;;;6289629;22;20090;-91
2022/08/19 11:06:29;;;;;;;0.20;0.20;;;;;;;;;;6289243;22;20022;-93
2022/08/19 11:08:56;;;;;;;0.10;0.10;;;;;;;;;;6289732;22;20037;-92
2022/08/19 11:11:22;;;;;;;0.10;0.10;;;;;;;;;;6289140;22;20014;-92
2022/08/19 11:13:49;;;;;;;0.10;0.10;;;;;;;;;;6289476;22;20025;-89
2022/08/19 11:16:21;;;;;;;0.05;0.05;;;;;;;;;;6289921;22;20018;-93
2022/08/19 11:18:49;;;;;;;0.00;0.00;;;;;;;;;;6289900;22;20026;-92
2022/08/19 11:21:19;;;;;;;0.10;0.10;;;;;;;;;;6316204;22;20022;-91
2022/08/19 11:23:46;;;;;;;0.00;0.00;;;;;;;;;;6315596;22;20087;-92
2022/08/19 11:26:13;;;;;;;0.10;0.10;;;;;;;;;;6290366;22;20029;-93
2022/08/19 11:28:39;;;;;;;0.00;0.00;;;;;;;;;;6290849;22;20337;-93
2022/08/19 11:31:09;;;;;;;0.08;0.08;;;;;;;;;;6290217;22;20067;-93
2022/08/19 11:33:36;;;;;;;0.03;0.03;;;;;;;;;;6289920;22;20019;-91
2022/08/19 11:36:02;;;;;;;0.10;0.10;;;;;;;;;;6288915;22;20517;-91
2022/08/19 11:38:29;;;;;;;0.00;0.00;;;;;;;;;;6290026;22;20024;-93
2022/08/19 11:40:58;;;;;;;0.00;0.00;;;;;;;;;;6291183;22;20017;-93
2022/08/19 11:43:26;;;;;;;0.00;0.00;;;;;;;;;;6315807;22;20023;-91
2022/08/19 11:46:16;;;;;;;0.08;0.08;;;;;;;;;;6287260;22;20026;-91
2022/08/19 11:48:42;;;;;;;0.10;0.10;;;;;;;;;;6289724;22;20018;-93
2022/08/19 11:51:13;;;;;;;0.10;0.10;;;;;;;;;;6314394;22;20071;-89
2022/08/19 11:53:39;;;;;;;0.00;0.00;;;;;;;;;;6289001;22;20044;-92
2022/08/19 11:56:06;;;;;;;0.00;0.00;;;;;;;;;;6290617;22;20353;-91
2022/08/19 11:58:32;;;;;;;0.00;0.00;;;;;;;;;;6316346;22;20018;-92
2022/08/19 12:00:58;;;;;;;0.00;0.00;;;;;;;;;;6290673;22;20026;-89
2022/08/19 12:03:36;;;;;;;0.10;0.10;;;;;;;;;;6290520;22;20453;-91
2022/08/19 12:06:09;;;;;;;0.10;0.10;;;;;;;;;;6289475;22;20452;-92
2022/08/19 12:08:36;;;;;;;0.00;0.00;;;;;;;;;;6290353;22;20022;-91
2022/08/19 12:11:02;;;;;;;0.10;0.10;;;;;;;;;;6290942;22;20415;-91
2022/08/19 12:13:30;;;;;;;0.10;0.10;;;;;;;;;;6290410;22;20093;-93
2022/08/19 12:15:56;;;;;;;0.03;0.03;;;;;;;;;;6289669;22;20098;-91
2022/08/19 12:18:22;;;;;;;0.20;0.20;;;;;;;;;;6290443;22;20093;-91
2022/08/19 12:20:50;;;;;;;0.00;0.00;;;;;;;;;;6316563;22;20050;-93
2022/08/19 12:23:17;;;;;;;0.00;0.00;;;;;;;;;;6291163;22;20022;-92
2022/08/19 12:25:51;;;;;;;0.00;0.00;;;;;;;;;;6290348;22;20116;-91
2022/08/19 12:28:21;;;;;;;0.00;0.00;;;;;;;;;;6290237;22;20022;-91
2022/08/19 12:30:47;;;;;;;0.00;0.00;;;;;;;;;;6290686;22;20054;-91
2022/08/19 12:33:14;;;;;;;0.00;0.00;;;;;;;;;;6291801;22;20026;-96
2022/08/19 12:35:41;;;;;;;0.00;0.00;;;;;;;;;;6293210;22;20014;-96
2022/08/19 12:38:07;;;;;;;0.10;0.10;;;;;;;;;;6295102;22;20080;-93
2022/08/19 12:40:33;;;;;;;0.00;0.00;;;;;;;;;;6320051;22;20046;-91
2022/08/19 12:42:59;;;;;;;0.00;0.00;;;;;;;;;;6293191;22;20011;-94
2022/08/19 12:45:25;;;;;;;0.10;0.10;;;;;;;;;;6294686;22;20023;-94
2022/08/19 12:47:52;;;;;;;0.00;0.00;;;;;;;;;;6294345;22;20093;-95
2022/08/19 12:50:21;;;;;;;0.00;0.00;;;;;;;;;;6294597;22;20095;-95
2022/08/19 12:52:50;;;;;;;0.10;0.10;;;;;;;;;;6320721;22;20037;-93
2022/08/19 12:55:18;;;;;;;0.10;0.10;;;;;;;;;;6293731;22;20042;-95
2022/08/19 12:57:50;;;;;;;0.10;0.10;;;;;;;;;;6293870;22;20109;-96
2022/08/19 13:00:18;;;;;;;0.00;0.00;;;;;;;;;;6294335;22;20022;-94
2022/08/19 13:02:45;;;;;;;0.00;0.00;;;;;;;;;;6294034;22;20019;-94
2022/08/19 13:05:13;;;;;;;0.00;0.00;;;;;;;;;;6295135;22;20015;-95
2022/08/19 13:07:39;;;;;;;0.00;0.00;;;;;;;;;;6292844;22;20052;-93
2022/08/19 13:10:07;;;;;;;0.10;0.10;;;;;;;;;;6292961;22;20019;-95
2022/08/19 13:12:33;;;;;;;0.10;0.10;;;;;;;;;;6293668;22;20049;-93
2022/08/19 13:14:59;;;;;;;0.13;0.13;;;;;;;;;;6291557;22;20018;-94
2022/08/19 13:17:25;;;;;;;0.00;0.00;;;;;;;;;;6292871;22;20026;-94
2022/08/19 13:19:51;;;;;;;0.08;0.08;;;;;;;;;;6293626;22;19995;-94
2022/08/19 13:22:17;;;;;;;0.10;0.10;;;;;;;;;;6293930;22;20076;-94
2022/08/19 13:24:57;;;;;;;0.00;0.00;;;;;;;;;;6289848;22;20037;-93
2022/08/19 13:27:23;;;;;;;0.13;0.13;;;;;;;;;;6293167;22;20088;-90
2022/08/19 13:35:19;;;;;;;0.00;0.00;;;;;;;;;;6319228;22;20356;-95
2022/08/19 13:37:56;;;;;;;0.00;0.00;;;;;;;;;;6290834;22;20328;-89
2022/08/19 13:40:23;;;;;;;0.10;0.10;;;;;;;;;;6289484;22;20018;-89
2022/08/19 13:42:51;;;;;;;0.00;0.00;;;;;;;;;;6292930;22;20015;-94
2022/08/19 13:45:19;;;;;;;0.00;0.00;;;;;;;;;;6292843;22;20030;-95
2022/08/19 13:47:49;;;;;;;0.10;0.10;;;;;;;;;;6294390;22;20017;-96
2022/08/19 13:50:20;;;;;;;0.10;0.10;;;;;;;;;;6294969;22;20030;-94
2022/08/19 13:52:47;;;;;;;0.00;0.00;;;;;;;;;;6294541;22;20011;-93
2022/08/19 13:55:13;;;;;;;0.10;0.10;;;;;;;;;;6293812;22;20023;-94
2022/08/19 13:57:40;;;;;;;0.95;0.80;;;;;;;;;;6293733;22;20019;-95
2022/08/19 14:00:11;;;;;;;0.10;0.10;;;;;;;;;;6293464;22;20015;-93
2022/08/19 14:02:38;;;;;;;0.00;0.00;;;;;;;;;;6292281;22;20018;-94
2022/08/19 14:05:09;;;;;;;0.00;0.00;;;;;;;;;;6293172;22;20033;-93
2022/08/19 14:07:44;;;;;;;0.00;0.00;;;;;;;;;;6291792;22;20056;-94
2022/08/19 14:10:14;;;;;;;0.05;0.05;;;;;;;;;;6317840;22;20026;-92
2022/08/19 14:12:40;;;;;;;0.00;0.00;;;;;;;;;;6293997;22;19995;-94
2022/08/19 14:15:22;;;;;;;0.05;0.05;;;;;;;;;;6293437;22;20086;-92
2022/08/19 14:17:48;;;;;;;0.00;0.00;;;;;;;;;;6293785;22;20031;-92
2022/08/19 14:20:16;;;;;;;0.10;0.10;;;;;;;;;;6293145;22;20007;-95
2022/08/19 14:22:42;;;;;;;0.00;0.00;;;;;;;;;;6292747;22;20064;-96
2022/08/19 14:25:10;;;;;;;0.00;0.00;;;;;;;;;;6295187;22;20086;-93
2022/08/19 14:27:37;;;;;;;0.08;0.08;;;;;;;;;;6318956;22;20003;-92
2022/08/19 14:30:07;;;;;;;0.05;0.05;;;;;;;;;;6292302;22;19995;-93
2022/08/19 14:32:34;;;;;;;0.08;0.08;;;;;;;;;;6292458;22;20015;-94
2022/08/19 14:35:01;;;;;;;0.00;0.00;;;;;;;;;;6293718;22;20014;-93
2022/08/19 14:37:33;;;;;;;0.00;0.00;;;;;;;;;;6290681;22;20007;-89
2022/08/19 14:39:59;;;;;;;0.00;0.00;;;;;;;;;;6291951;22;20026;-92
2022/08/19 14:42:25;;;;;;;0.00;0.00;;;;;;;;;;6292195;22;20022;-93
2022/08/19 14:44:51;;;;;;;0.10;0.10;;;;;;;;;;6291660;22;20019;-93
2022/08/19 14:47:22;;;;;;;0.10;0.10;;;;;;;;;;6291566;22;20026;-93
2022/08/19 14:49:48;;;;;;;0.10;0.10;;;;;;;;;;6292369;22;20010;-94
2022/08/19 14:52:30;;;;;;;0.10;0.10;;;;;;;;;;6291378;22;20027;-93
2022/08/19 14:55:01;;;;;;;0.10;0.10;;;;;;;;;;6291471;22;20021;-95
2022/08/19 14:57:30;;;;;;;0.10;0.10;;;;;;;;;;6292916;22;20022;-95
2022/08/19 14:59:57;;;;;;;0.00;0.00;;;;;;;;;;6292837;22;20014;-94
2022/08/19 15:02:23;;;;;;;0.00;0.00;;;;;;;;;;6293051;22;20019;-95
2022/08/19 15:04:50;;;;;;;0.03;0.03;;;;;;;;;;6292889;22;20023;-94
2022/08/19 15:07:32;;;;;;;0.10;0.10;;;;;;;;;;6291677;22;20003;-92
2022/08/19 15:09:58;;;;;;;0.10;0.10;;;;;;;;;;6292009;22;20073;-93
2022/08/19 15:12:26;;;;;;;0.00;0.00;;;;;;;;;;6290858;22;20003;-93
2022/08/19 15:14:53;;;;;;;0.05;0.05;;;;;;;;;;6291783;22;20521;-96
2022/08/19 15:17:20;;;;;;;0.10;0.10;;;;;;;;;;6290246;22;20018;-92
2022/08/19 15:19:46;;;;;;;0.00;0.00;;;;;;;;;;6290908;22;20064;-95
2022/08/19 15:22:13;;;;;;;0.00;0.00;;;;;;;;;;6292571;22;20066;-96
2022/08/19 15:24:39;;;;;;;0.10;0.10;;;;;;;;;;6291902;22;20030;-95
2022/08/19 15:27:05;;;;;;;0.10;0.10;;;;;;;;;;6291739;22;20022;-92
2022/08/19 15:29:32;;;;;;;0.10;0.10;;;;;;;;;;6290561;22;20014;-94
2022/08/19 15:31:58;;;;;;;0.00;0.00;;;;;;;;;;6291956;22;20011;-95
2022/08/19 15:34:25;;;;;;;0.10;0.10;;;;;;;;;;6291166;22;20460;-95
2022/08/19 15:36:57;;;;;;;0.10;0.10;;;;;;;;;;6290424;22;20042;-95
2022/08/19 15:39:24;;;;;;;0.10;0.10;;;;;;;;;;6292697;22;20023;-96
2022/08/19 15:41:50;;;;;;;0.03;0.03;;;;;;;;;;6292837;22;20098;-95
2022/08/19 15:44:17;;;;;;;0.05;0.05;;;;;;;;;;6294965;22;20026;-95
2022/08/19 15:46:44;;;;;;;0.00;0.00;;;;;;;;;;6292509;22;20427;-96
2022/08/19 15:49:14;;;;;;;0.10;0.10;;;;;;;;;;6293080;22;20050;-92
2022/08/19 15:51:42;;;;;;;0.00;0.00;;;;;;;;;;6318517;22;20026;-93
2022/08/19 15:54:09;;;;;;;0.03;0.03;;;;;;;;;;6291976;22;20033;-92